sensor_id;sensor_type;location;lat;lon;timestamp;P1;durP1;ratioP1;P2;durP2;ratioP2
705;SDS011;21234;48.690;9.016;2023-04-25T00:02:12;1.70;;;1.57;;
705;SDS011;21234;48.690;9.016;2023-04-25T00:04:39;3.37;;;1.60;;
705;SDS011;21234;48.690;9.016;2023-04-25T00:07:06;3.20;;;1.93;;
705;SDS011;21234;48.690;9.016;2023-04-25T00:09:34;1.83;;;1.60;;
705;SDS011;21234;48.690;9.016;2023-04-25T00:12:01;2.33;;;2.07;;
705;SDS011;21234;48.690;9.016;2023-04-25T00:14:28;1.77;;;1.53;;
705;SDS011;21234;48.690;9.016;2023-04-25T00:16:55;2.27;;;1.73;;
705;SDS011;21234;48.690;9.016;2023-04-25T00:19:23;1.60;;;1.50;;
705;SDS011;21234;48.690;9.016;2023-04-25T00:21:49;1.63;;;1.53;;
705;SDS011;21234;48.690;9.016;2023-04-25T00:24:16;2.70;;;1.67;;
705;SDS011;21234;48.690;9.016;2023-04-25T00:26:44;1.63;;;1.53;;
705;SDS011;21234;48.690;9.016;2023-04-25T00:29:11;2.53;;;1.50;;
705;SDS011;21234;48.690;9.016;2023-04-25T00:31:37;2.40;;;1.50;;
705;SDS011;21234;48.690;9.016;2023-04-25T00:34:05;1.93;;;1.80;;
705;SDS011;21234;48.690;9.016;2023-04-25T00:36:33;1.97;;;1.80;;
705;SDS011;21234;48.690;9.016;2023-04-25T00:39:00;2.60;;;2.37;;
705;SDS011;21234;48.690;9.016;2023-04-25T00:41:27;1.90;;;1.80;;
705;SDS011;21234;48.690;9.016;2023-04-25T00:43:56;1.80;;;1.70;;
705;SDS011;21234;48.690;9.016;2023-04-25T00:46:24;2.67;;;1.80;;
705;SDS011;21234;48.690;9.016;2023-04-25T00:48:51;1.70;;;1.60;;
705;SDS011;21234;48.690;9.016;2023-04-25T00:51:19;3.03;;;2.30;;
705;SDS011;21234;48.690;9.016;2023-04-25T00:53:46;3.10;;;2.07;;
705;SDS011;21234;48.690;9.016;2023-04-25T00:56:14;5.80;;;1.80;;
705;SDS011;21234;48.690;9.016;2023-04-25T00:58:42;1.80;;;1.40;;
705;SDS011;21234;48.690;9.016;2023-04-25T01:01:10;2.13;;;1.43;;
705;SDS011;21234;48.690;9.016;2023-04-25T01:03:38;3.60;;;2.03;;
705;SDS011;21234;48.690;9.016;2023-04-25T01:06:06;1.93;;;1.70;;
705;SDS011;21234;48.690;9.016;2023-04-25T01:08:34;2.00;;;1.40;;
705;SDS011;21234;48.690;9.016;2023-04-25T01:11:01;4.47;;;2.30;;
705;SDS011;21234;48.690;9.016;2023-04-25T01:13:28;3.10;;;2.30;;
705;SDS011;21234;48.690;9.016;2023-04-25T01:15:55;2.13;;;1.93;;
705;SDS011;21234;48.690;9.016;2023-04-25T01:18:23;2.03;;;1.93;;
705;SDS011;21234;48.690;9.016;2023-04-25T01:20:50;2.30;;;2.00;;
705;SDS011;21234;48.690;9.016;2023-04-25T01:23:19;2.33;;;2.10;;
705;SDS011;21234;48.690;9.016;2023-04-25T01:25:47;3.23;;;1.97;;
705;SDS011;21234;48.690;9.016;2023-04-25T01:28:14;2.83;;;2.23;;
705;SDS011;21234;48.690;9.016;2023-04-25T01:30:41;3.83;;;2.03;;
705;SDS011;21234;48.690;9.016;2023-04-25T01:33:09;2.07;;;1.73;;
705;SDS011;21234;48.690;9.016;2023-04-25T01:35:36;3.77;;;2.10;;
705;SDS011;21234;48.690;9.016;2023-04-25T01:38:02;2.47;;;2.27;;
705;SDS011;21234;48.690;9.016;2023-04-25T01:40:31;1.83;;;1.50;;
705;SDS011;21234;48.690;9.016;2023-04-25T01:42:59;2.97;;;1.50;;
705;SDS011;21234;48.690;9.016;2023-04-25T01:45:26;1.90;;;1.67;;
705;SDS011;21234;48.690;9.016;2023-04-25T01:47:53;1.80;;;1.60;;
705;SDS011;21234;48.690;9.016;2023-04-25T01:50:19;3.00;;;1.73;;
705;SDS011;21234;48.690;9.016;2023-04-25T01:52:46;1.80;;;1.47;;
705;SDS011;21234;48.690;9.016;2023-04-25T01:55:13;7.30;;;1.80;;
705;SDS011;21234;48.690;9.016;2023-04-25T01:57:41;1.43;;;1.33;;
705;SDS011;21234;48.690;9.016;2023-04-25T02:00:08;2.73;;;2.50;;
705;SDS011;21234;48.690;9.016;2023-04-25T02:02:35;2.50;;;1.63;;
705;SDS011;21234;48.690;9.016;2023-04-25T02:05:02;1.90;;;1.70;;
705;SDS011;21234;48.690;9.016;2023-04-25T02:07:29;2.07;;;1.87;;
705;SDS011;21234;48.690;9.016;2023-04-25T02:09:56;5.00;;;1.77;;
705;SDS011;21234;48.690;9.016;2023-04-25T02:12:23;3.23;;;2.10;;
705;SDS011;21234;48.690;9.016;2023-04-25T02:14:52;4.40;;;2.30;;
705;SDS011;21234;48.690;9.016;2023-04-25T02:17:19;1.60;;;1.50;;
705;SDS011;21234;48.690;9.016;2023-04-25T02:19:46;2.00;;;1.80;;
705;SDS011;21234;48.690;9.016;2023-04-25T02:22:13;6.93;;;2.53;;
705;SDS011;21234;48.690;9.016;2023-04-25T02:24:40;2.10;;;1.90;;
705;SDS011;21234;48.690;9.016;2023-04-25T02:27:07;1.77;;;1.67;;
705;SDS011;21234;48.690;9.016;2023-04-25T02:29:33;2.43;;;1.83;;
705;SDS011;21234;48.690;9.016;2023-04-25T02:32:02;3.20;;;1.73;;
705;SDS011;21234;48.690;9.016;2023-04-25T02:34:28;1.77;;;1.67;;
705;SDS011;21234;48.690;9.016;2023-04-25T02:36:55;2.20;;;2.00;;
705;SDS011;21234;48.690;9.016;2023-04-25T02:39:22;4.83;;;1.57;;
705;SDS011;21234;48.690;9.016;2023-04-25T02:41:50;4.73;;;2.57;;
705;SDS011;21234;48.690;9.016;2023-04-25T02:44:17;2.03;;;1.83;;
705;SDS011;21234;48.690;9.016;2023-04-25T02:46:43;2.00;;;1.87;;
705;SDS011;21234;48.690;9.016;2023-04-25T02:49:13;2.30;;;1.77;;
705;SDS011;21234;48.690;9.016;2023-04-25T02:51:39;3.93;;;1.60;;
705;SDS011;21234;48.690;9.016;2023-04-25T02:54:06;2.47;;;1.30;;
705;SDS011;21234;48.690;9.016;2023-04-25T02:56:33;3.13;;;1.60;;
705;SDS011;21234;48.690;9.016;2023-04-25T02:58:59;2.17;;;1.97;;
705;SDS011;21234;48.690;9.016;2023-04-25T03:01:26;2.30;;;1.87;;
705;SDS011;21234;48.690;9.016;2023-04-25T03:03:53;2.07;;;1.60;;
705;SDS011;21234;48.690;9.016;2023-04-25T03:06:21;2.83;;;2.07;;
705;SDS011;21234;48.690;9.016;2023-04-25T03:08:47;1.90;;;1.50;;
705;SDS011;21234;48.690;9.016;2023-04-25T03:11:14;2.07;;;1.60;;
705;SDS011;21234;48.690;9.016;2023-04-25T03:13:41;3.00;;;2.30;;
705;SDS011;21234;48.690;9.016;2023-04-25T03:16:08;2.30;;;2.10;;
705;SDS011;21234;48.690;9.016;2023-04-25T03:18:34;2.43;;;1.63;;
705;SDS011;21234;48.690;9.016;2023-04-25T03:21:01;2.27;;;2.07;;
705;SDS011;21234;48.690;9.016;2023-04-25T03:23:29;1.80;;;1.70;;
705;SDS011;21234;48.690;9.016;2023-04-25T03:25:56;3.07;;;2.20;;
705;SDS011;21234;48.690;9.016;2023-04-25T03:28:23;2.63;;;1.87;;
705;SDS011;21234;48.690;9.016;2023-04-25T03:30:50;5.00;;;2.13;;
705;SDS011;21234;48.690;9.016;2023-04-25T03:33:17;4.60;;;2.20;;
705;SDS011;21234;48.690;9.016;2023-04-25T03:35:43;8.33;;;2.77;;
705;SDS011;21234;48.690;9.016;2023-04-25T03:38:10;3.00;;;2.37;;
705;SDS011;21234;48.690;9.016;2023-04-25T03:40:38;3.70;;;2.47;;
705;SDS011;21234;48.690;9.016;2023-04-25T03:43:05;3.20;;;2.30;;
705;SDS011;21234;48.690;9.016;2023-04-25T03:45:32;3.70;;;1.93;;
705;SDS011;21234;48.690;9.016;2023-04-25T03:47:58;3.33;;;2.37;;
705;SDS011;21234;48.690;9.016;2023-04-25T03:50:25;3.20;;;1.93;;
705;SDS011;21234;48.690;9.016;2023-04-25T03:52:52;2.50;;;2.30;;
705;SDS011;21234;48.690;9.016;2023-04-25T03:55:18;2.33;;;2.00;;
705;SDS011;21234;48.690;9.016;2023-04-25T03:57:47;3.57;;;1.80;;
705;SDS011;21234;48.690;9.016;2023-04-25T04:00:14;3.03;;;2.53;;
705;SDS011;21234;48.690;9.016;2023-04-25T04:02:41;4.13;;;2.43;;
705;SDS011;21234;48.690;9.016;2023-04-25T04:05:08;2.60;;;2.10;;
705;SDS011;21234;48.690;9.016;2023-04-25T04:07:35;4.37;;;2.20;;
705;SDS011;21234;48.690;9.016;2023-04-25T04:10:05;2.47;;;2.27;;
705;SDS011;21234;48.690;9.016;2023-04-25T04:12:32;4.50;;;2.97;;
705;SDS011;21234;48.690;9.016;2023-04-25T04:15:00;2.93;;;2.00;;
705;SDS011;21234;48.690;9.016;2023-04-25T04:17:28;3.00;;;2.53;;
705;SDS011;21234;48.690;9.016;2023-04-25T04:19:55;2.80;;;2.50;;
705;SDS011;21234;48.690;9.016;2023-04-25T04:22:22;2.50;;;2.30;;
705;SDS011;21234;48.690;9.016;2023-04-25T04:24:49;3.30;;;2.67;;
705;SDS011;21234;48.690;9.016;2023-04-25T04:27:16;5.37;;;2.20;;
705;SDS011;21234;48.690;9.016;2023-04-25T04:29:44;2.50;;;1.80;;
705;SDS011;21234;48.690;9.016;2023-04-25T04:32:12;3.20;;;2.47;;
705;SDS011;21234;48.690;9.016;2023-04-25T04:34:39;2.40;;;2.20;;
705;SDS011;21234;48.690;9.016;2023-04-25T04:37:07;3.37;;;2.87;;
705;SDS011;21234;48.690;9.016;2023-04-25T04:39:34;2.93;;;2.43;;
705;SDS011;21234;48.690;9.016;2023-04-25T04:42:01;2.17;;;2.07;;
705;SDS011;21234;48.690;9.016;2023-04-25T04:44:28;5.40;;;3.27;;
705;SDS011;21234;48.690;9.016;2023-04-25T04:46:57;3.97;;;2.83;;
705;SDS011;21234;48.690;9.016;2023-04-25T04:49:25;5.07;;;2.20;;
705;SDS011;21234;48.690;9.016;2023-04-25T04:51:52;5.97;;;2.90;;
705;SDS011;21234;48.690;9.016;2023-04-25T04:54:19;3.87;;;2.40;;
705;SDS011;21234;48.690;9.016;2023-04-25T04:56:46;2.37;;;2.00;;
705;SDS011;21234;48.690;9.016;2023-04-25T04:59:13;2.30;;;2.10;;
705;SDS011;21234;48.690;9.016;2023-04-25T05:01:40;5.43;;;3.90;;
705;SDS011;21234;48.690;9.016;2023-04-25T05:04:06;3.77;;;2.57;;
705;SDS011;21234;48.690;9.016;2023-04-25T05:06:34;4.00;;;2.97;;
705;SDS011;21234;48.690;9.016;2023-04-25T05:09:01;3.30;;;2.63;;
705;SDS011;21234;48.690;9.016;2023-04-25T05:11:28;3.33;;;2.17;;
705;SDS011;21234;48.690;9.016;2023-04-25T05:13:55;3.40;;;2.57;;
705;SDS011;21234;48.690;9.016;2023-04-25T05:16:21;3.07;;;2.30;;
705;SDS011;21234;48.690;9.016;2023-04-25T05:18:48;3.07;;;2.77;;
705;SDS011;21234;48.690;9.016;2023-04-25T05:21:15;3.17;;;2.80;;
705;SDS011;21234;48.690;9.016;2023-04-25T05:23:43;6.50;;;2.90;;
705;SDS011;21234;48.690;9.016;2023-04-25T05:26:10;3.20;;;2.90;;
705;SDS011;21234;48.690;9.016;2023-04-25T05:28:39;3.33;;;2.80;;
705;SDS011;21234;48.690;9.016;2023-04-25T05:31:06;3.00;;;2.67;;
705;SDS011;21234;48.690;9.016;2023-04-25T05:33:33;3.83;;;2.30;;
705;SDS011;21234;48.690;9.016;2023-04-25T05:35:59;3.00;;;2.40;;
705;SDS011;21234;48.690;9.016;2023-04-25T05:38:26;2.50;;;2.30;;
705;SDS011;21234;48.690;9.016;2023-04-25T05:40:54;4.30;;;2.10;;
705;SDS011;21234;48.690;9.016;2023-04-25T05:43:21;3.03;;;2.80;;
705;SDS011;21234;48.690;9.016;2023-04-25T05:45:47;4.00;;;2.33;;
705;SDS011;21234;48.690;9.016;2023-04-25T05:48:14;4.10;;;2.67;;
705;SDS011;21234;48.690;9.016;2023-04-25T05:50:41;2.80;;;2.40;;
705;SDS011;21234;48.690;9.016;2023-04-25T05:53:08;7.33;;;2.70;;
705;SDS011;21234;48.690;9.016;2023-04-25T05:55:35;3.47;;;2.57;;
705;SDS011;21234;48.690;9.016;2023-04-25T05:58:03;7.30;;;3.20;;
705;SDS011;21234;48.690;9.016;2023-04-25T06:00:31;4.30;;;2.90;;
705;SDS011;21234;48.690;9.016;2023-04-25T06:02:58;2.67;;;2.47;;
705;SDS011;21234;48.690;9.016;2023-04-25T06:05:24;3.03;;;2.17;;
705;SDS011;21234;48.690;9.016;2023-04-25T06:07:51;2.70;;;2.30;;
705;SDS011;21234;48.690;9.016;2023-04-25T06:10:18;4.80;;;3.30;;
705;SDS011;21234;48.690;9.016;2023-04-25T06:12:44;5.70;;;2.80;;
705;SDS011;21234;48.690;9.016;2023-04-25T06:15:12;5.53;;;3.43;;
705;SDS011;21234;48.690;9.016;2023-04-25T06:17:40;3.33;;;2.80;;
705;SDS011;21234;48.690;9.016;2023-04-25T06:20:07;6.60;;;5.23;;
705;SDS011;21234;48.690;9.016;2023-04-25T06:22:35;9.87;;;5.53;;
705;SDS011;21234;48.690;9.016;2023-04-25T06:25:01;6.23;;;4.73;;
705;SDS011;21234;48.690;9.016;2023-04-25T06:27:29;3.17;;;2.87;;
705;SDS011;21234;48.690;9.016;2023-04-25T06:29:56;7.33;;;3.40;;
705;SDS011;21234;48.690;9.016;2023-04-25T06:32:24;4.10;;;3.00;;
705;SDS011;21234;48.690;9.016;2023-04-25T06:34:52;4.53;;;4.10;;
705;SDS011;21234;48.690;9.016;2023-04-25T06:37:19;5.97;;;3.43;;
705;SDS011;21234;48.690;9.016;2023-04-25T06:39:46;3.47;;;3.17;;
705;SDS011;21234;48.690;9.016;2023-04-25T06:42:12;4.47;;;3.13;;
705;SDS011;21234;48.690;9.016;2023-04-25T06:44:39;3.83;;;3.47;;
705;SDS011;21234;48.690;9.016;2023-04-25T06:47:05;4.57;;;3.67;;
705;SDS011;21234;48.690;9.016;2023-04-25T06:49:33;3.73;;;2.67;;
705;SDS011;21234;48.690;9.016;2023-04-25T06:52:00;3.47;;;3.20;;
705;SDS011;21234;48.690;9.016;2023-04-25T06:54:27;2.60;;;2.30;;
705;SDS011;21234;48.690;9.016;2023-04-25T06:56:55;8.37;;;3.17;;
705;SDS011;21234;48.690;9.016;2023-04-25T06:59:22;3.60;;;2.90;;
705;SDS011;21234;48.690;9.016;2023-04-25T07:01:49;3.60;;;2.87;;
705;SDS011;21234;48.690;9.016;2023-04-25T07:04:16;4.70;;;3.70;;
705;SDS011;21234;48.690;9.016;2023-04-25T07:06:44;4.10;;;3.10;;
705;SDS011;21234;48.690;9.016;2023-04-25T07:09:12;2.70;;;2.47;;
705;SDS011;21234;48.690;9.016;2023-04-25T07:11:39;4.90;;;4.17;;
705;SDS011;21234;48.690;9.016;2023-04-25T07:14:06;8.80;;;3.97;;
705;SDS011;21234;48.690;9.016;2023-04-25T07:16:32;5.00;;;3.30;;
705;SDS011;21234;48.690;9.016;2023-04-25T07:18:59;5.90;;;3.03;;
705;SDS011;21234;48.690;9.016;2023-04-25T07:21:26;3.37;;;3.07;;
705;SDS011;21234;48.690;9.016;2023-04-25T07:23:54;5.47;;;3.70;;
705;SDS011;21234;48.690;9.016;2023-04-25T07:26:20;5.50;;;4.10;;
705;SDS011;21234;48.690;9.016;2023-04-25T07:28:47;3.70;;;3.40;;
705;SDS011;21234;48.690;9.016;2023-04-25T07:31:16;6.90;;;5.13;;
705;SDS011;21234;48.690;9.016;2023-04-25T07:33:43;6.23;;;5.00;;
705;SDS011;21234;48.690;9.016;2023-04-25T07:36:10;5.37;;;4.87;;
705;SDS011;21234;48.690;9.016;2023-04-25T07:38:37;5.17;;;4.60;;
705;SDS011;21234;48.690;9.016;2023-04-25T07:41:06;4.60;;;4.10;;
705;SDS011;21234;48.690;9.016;2023-04-25T07:43:32;4.50;;;4.10;;
705;SDS011;21234;48.690;9.016;2023-04-25T07:45:59;5.87;;;3.20;;
705;SDS011;21234;48.690;9.016;2023-04-25T07:48:26;4.47;;;3.10;;
705;SDS011;21234;48.690;9.016;2023-04-25T07:50:52;3.90;;;2.20;;
705;SDS011;21234;48.690;9.016;2023-04-25T07:53:19;5.50;;;2.60;;
705;SDS011;21234;48.690;9.016;2023-04-25T07:55:46;2.97;;;2.60;;
705;SDS011;21234;48.690;9.016;2023-04-25T07:58:14;3.23;;;2.93;;
705;SDS011;21234;48.690;9.016;2023-04-25T08:00:46;3.60;;;3.30;;
705;SDS011;21234;48.690;9.016;2023-04-25T08:03:12;4.87;;;3.37;;
705;SDS011;21234;48.690;9.016;2023-04-25T08:05:39;3.03;;;2.73;;
705;SDS011;21234;48.690;9.016;2023-04-25T08:08:06;2.43;;;2.03;;
705;SDS011;21234;48.690;9.016;2023-04-25T08:10:33;5.57;;;2.80;;
705;SDS011;21234;48.690;9.016;2023-04-25T08:13:00;4.30;;;3.33;;
705;SDS011;21234;48.690;9.016;2023-04-25T08:15:28;2.87;;;2.63;;
705;SDS011;21234;48.690;9.016;2023-04-25T08:17:54;3.13;;;2.83;;
705;SDS011;21234;48.690;9.016;2023-04-25T08:20:21;4.60;;;3.00;;
705;SDS011;21234;48.690;9.016;2023-04-25T08:22:48;4.20;;;2.60;;
705;SDS011;21234;48.690;9.016;2023-04-25T08:25:14;4.53;;;3.07;;
705;SDS011;21234;48.690;9.016;2023-04-25T08:27:41;3.50;;;3.20;;
705;SDS011;21234;48.690;9.016;2023-04-25T08:30:08;4.63;;;3.23;;
705;SDS011;21234;48.690;9.016;2023-04-25T08:32:36;4.40;;;3.53;;
705;SDS011;21234;48.690;9.016;2023-04-25T08:35:04;6.30;;;3.00;;
705;SDS011;21234;48.690;9.016;2023-04-25T08:37:31;4.97;;;3.47;;
705;SDS011;21234;48.690;9.016;2023-04-25T08:39:58;3.87;;;2.60;;
705;SDS011;21234;48.690;9.016;2023-04-25T08:42:26;3.80;;;2.83;;
705;SDS011;21234;48.690;9.016;2023-04-25T08:44:53;4.00;;;2.97;;
705;SDS011;21234;48.690;9.016;2023-04-25T08:47:21;4.03;;;3.13;;
705;SDS011;21234;48.690;9.016;2023-04-25T08:49:50;5.30;;;3.80;;
705;SDS011;21234;48.690;9.016;2023-04-25T08:52:21;4.00;;;3.57;;
705;SDS011;21234;48.690;9.016;2023-04-25T08:54:49;5.03;;;3.47;;
705;SDS011;21234;48.690;9.016;2023-04-25T08:57:18;3.27;;;2.93;;
705;SDS011;21234;48.690;9.016;2023-04-25T08:59:45;3.33;;;3.03;;
705;SDS011;21234;48.690;9.016;2023-04-25T09:02:13;3.80;;;3.20;;
705;SDS011;21234;48.690;9.016;2023-04-25T09:04:42;4.13;;;3.27;;
705;SDS011;21234;48.690;9.016;2023-04-25T09:07:11;4.63;;;3.13;;
705;SDS011;21234;48.690;9.016;2023-04-25T09:09:40;5.50;;;3.67;;
705;SDS011;21234;48.690;9.016;2023-04-25T09:12:07;4.73;;;3.53;;
705;SDS011;21234;48.690;9.016;2023-04-25T09:14:34;4.70;;;3.60;;
705;SDS011;21234;48.690;9.016;2023-04-25T09:17:02;4.40;;;4.00;;
705;SDS011;21234;48.690;9.016;2023-04-25T09:19:30;3.23;;;2.93;;
705;SDS011;21234;48.690;9.016;2023-04-25T09:22:00;2.13;;;1.73;;
705;SDS011;21234;48.690;9.016;2023-04-25T09:24:33;2.50;;;2.13;;
705;SDS011;21234;48.690;9.016;2023-04-25T09:27:05;2.83;;;2.53;;
705;SDS011;21234;48.690;9.016;2023-04-25T09:29:33;3.43;;;2.67;;
705;SDS011;21234;48.690;9.016;2023-04-25T09:32:12;3.40;;;3.10;;
705;SDS011;21234;48.690;9.016;2023-04-25T09:34:41;3.33;;;3.03;;
705;SDS011;21234;48.690;9.016;2023-04-25T09:37:09;2.50;;;2.00;;
705;SDS011;21234;48.690;9.016;2023-04-25T09:39:37;3.70;;;1.83;;
705;SDS011;21234;48.690;9.016;2023-04-25T09:42:05;1.77;;;1.37;;
705;SDS011;21234;48.690;9.016;2023-04-25T09:44:32;2.83;;;2.00;;
705;SDS011;21234;48.690;9.016;2023-04-25T09:46:58;1.63;;;1.17;;
705;SDS011;21234;48.690;9.016;2023-04-25T09:49:25;0.90;;;0.77;;
705;SDS011;21234;48.690;9.016;2023-04-25T09:51:56;0.87;;;0.83;;
705;SDS011;21234;48.690;9.016;2023-04-25T09:54:23;1.90;;;1.27;;
705;SDS011;21234;48.690;9.016;2023-04-25T09:56:52;3.80;;;1.07;;
705;SDS011;21234;48.690;9.016;2023-04-25T09:59:20;0.90;;;0.70;;
705;SDS011;21234;48.690;9.016;2023-04-25T10:01:48;7.20;;;0.63;;
705;SDS011;21234;48.690;9.016;2023-04-25T10:04:18;0.90;;;0.90;;
705;SDS011;21234;48.690;9.016;2023-04-25T10:06:49;0.57;;;0.40;;
705;SDS011;21234;48.690;9.016;2023-04-25T10:09:18;2.80;;;0.53;;
705;SDS011;21234;48.690;9.016;2023-04-25T10:11:46;1.33;;;0.70;;
705;SDS011;21234;48.690;9.016;2023-04-25T10:14:15;0.70;;;0.50;;
705;SDS011;21234;48.690;9.016;2023-04-25T10:16:42;0.50;;;0.50;;
705;SDS011;21234;48.690;9.016;2023-04-25T10:19:09;0.90;;;0.60;;
705;SDS011;21234;48.690;9.016;2023-04-25T10:21:36;0.80;;;0.63;;
705;SDS011;21234;48.690;9.016;2023-04-25T10:24:11;0.50;;;0.47;;
705;SDS011;21234;48.690;9.016;2023-04-25T10:26:38;0.50;;;0.40;;
705;SDS011;21234;48.690;9.016;2023-04-25T10:29:05;0.50;;;0.50;;
705;SDS011;21234;48.690;9.016;2023-04-25T10:31:33;3.30;;;0.53;;
705;SDS011;21234;48.690;9.016;2023-04-25T10:34:11;0.80;;;0.50;;
705;SDS011;21234;48.690;9.016;2023-04-25T10:36:38;0.70;;;0.40;;
705;SDS011;21234;48.690;9.016;2023-04-25T10:39:05;0.50;;;0.30;;
705;SDS011;21234;48.690;9.016;2023-04-25T10:41:45;0.80;;;0.50;;
705;SDS011;21234;48.690;9.016;2023-04-25T10:44:13;0.83;;;0.50;;
705;SDS011;21234;48.690;9.016;2023-04-25T10:46:41;1.07;;;0.83;;
705;SDS011;21234;48.690;9.016;2023-04-25T10:49:10;1.17;;;0.70;;
705;SDS011;21234;48.690;9.016;2023-04-25T10:51:58;0.97;;;0.50;;
705;SDS011;21234;48.690;9.016;2023-04-25T10:54:40;0.80;;;0.50;;
705;SDS011;21234;48.690;9.016;2023-04-25T10:57:07;0.70;;;0.47;;
705;SDS011;21234;48.690;9.016;2023-04-25T10:59:34;0.57;;;0.40;;
705;SDS011;21234;48.690;9.016;2023-04-25T11:02:02;1.00;;;0.47;;
705;SDS011;21234;48.690;9.016;2023-04-25T11:04:37;0.50;;;0.30;;
705;SDS011;21234;48.690;9.016;2023-04-25T11:07:09;0.60;;;0.43;;
705;SDS011;21234;48.690;9.016;2023-04-25T11:09:43;0.60;;;0.30;;
705;SDS011;21234;48.690;9.016;2023-04-25T11:12:11;0.67;;;0.67;;
705;SDS011;21234;48.690;9.016;2023-04-25T11:14:38;0.60;;;0.43;;
705;SDS011;21234;48.690;9.016;2023-04-25T11:17:06;0.70;;;0.50;;
705;SDS011;21234;48.690;9.016;2023-04-25T11:19:32;0.70;;;0.47;;
705;SDS011;21234;48.690;9.016;2023-04-25T11:22:00;0.70;;;0.50;;
705;SDS011;21234;48.690;9.016;2023-04-25T11:24:27;1.27;;;0.70;;
705;SDS011;21234;48.690;9.016;2023-04-25T11:26:54;1.53;;;1.30;;
705;SDS011;21234;48.690;9.016;2023-04-25T11:29:22;1.43;;;1.17;;
705;SDS011;21234;48.690;9.016;2023-04-25T11:31:49;1.67;;;1.57;;
705;SDS011;21234;48.690;9.016;2023-04-25T11:34:18;1.87;;;1.53;;
705;SDS011;21234;48.690;9.016;2023-04-25T11:36:45;2.80;;;2.20;;
705;SDS011;21234;48.690;9.016;2023-04-25T11:39:12;1.83;;;1.70;;
705;SDS011;21234;48.690;9.016;2023-04-25T11:41:40;2.80;;;1.87;;
705;SDS011;21234;48.690;9.016;2023-04-25T11:44:07;5.13;;;4.07;;
705;SDS011;21234;48.690;9.016;2023-04-25T11:46:34;3.17;;;2.27;;
705;SDS011;21234;48.690;9.016;2023-04-25T11:49:01;2.47;;;1.57;;
705;SDS011;21234;48.690;9.016;2023-04-25T11:51:30;1.87;;;1.70;;
705;SDS011;21234;48.690;9.016;2023-04-25T11:54:04;1.83;;;1.63;;
705;SDS011;21234;48.690;9.016;2023-04-25T11:56:31;2.40;;;2.20;;
705;SDS011;21234;48.690;9.016;2023-04-25T11:58:59;3.47;;;2.80;;
705;SDS011;21234;48.690;9.016;2023-04-25T12:01:27;3.10;;;2.20;;
705;SDS011;21234;48.690;9.016;2023-04-25T12:03:55;2.73;;;2.43;;
705;SDS011;21234;48.690;9.016;2023-04-25T12:06:25;2.03;;;1.60;;
705;SDS011;21234;48.690;9.016;2023-04-25T12:09:01;2.67;;;2.47;;
705;SDS011;21234;48.690;9.016;2023-04-25T12:11:29;2.60;;;2.00;;
705;SDS011;21234;48.690;9.016;2023-04-25T12:14:01;3.00;;;2.20;;
705;SDS011;21234;48.690;9.016;2023-04-25T12:16:28;3.40;;;2.70;;
705;SDS011;21234;48.690;9.016;2023-04-25T12:18:55;2.73;;;2.53;;
705;SDS011;21234;48.690;9.016;2023-04-25T12:21:27;2.90;;;2.63;;
705;SDS011;21234;48.690;9.016;2023-04-25T12:23:55;2.70;;;2.50;;
705;SDS011;21234;48.690;9.016;2023-04-25T12:26:23;3.57;;;3.00;;
705;SDS011;21234;48.690;9.016;2023-04-25T12:28:50;4.70;;;4.20;;
705;SDS011;21234;48.690;9.016;2023-04-25T12:31:17;3.77;;;3.07;;
705;SDS011;21234;48.690;9.016;2023-04-25T12:33:44;5.63;;;3.20;;
705;SDS011;21234;48.690;9.016;2023-04-25T12:36:12;3.93;;;2.77;;
705;SDS011;21234;48.690;9.016;2023-04-25T12:38:40;3.70;;;2.87;;
705;SDS011;21234;48.690;9.016;2023-04-25T12:41:08;3.67;;;3.07;;
705;SDS011;21234;48.690;9.016;2023-04-25T12:43:36;4.57;;;3.10;;
705;SDS011;21234;48.690;9.016;2023-04-25T12:46:03;4.23;;;3.90;;
705;SDS011;21234;48.690;9.016;2023-04-25T12:48:30;4.13;;;2.70;;
705;SDS011;21234;48.690;9.016;2023-04-25T12:50:56;6.20;;;4.13;;
705;SDS011;21234;48.690;9.016;2023-04-25T12:53:23;6.73;;;4.30;;
705;SDS011;21234;48.690;9.016;2023-04-25T12:55:50;5.23;;;3.73;;
705;SDS011;21234;48.690;9.016;2023-04-25T12:58:17;6.80;;;4.30;;
705;SDS011;21234;48.690;9.016;2023-04-25T13:00:46;5.67;;;4.10;;
705;SDS011;21234;48.690;9.016;2023-04-25T13:03:13;6.93;;;3.70;;
705;SDS011;21234;48.690;9.016;2023-04-25T13:05:40;5.50;;;4.67;;
705;SDS011;21234;48.690;9.016;2023-04-25T13:08:07;8.30;;;6.47;;
705;SDS011;21234;48.690;9.016;2023-04-25T13:10:33;4.90;;;4.43;;
705;SDS011;21234;48.690;9.016;2023-04-25T13:13:01;6.80;;;5.63;;
705;SDS011;21234;48.690;9.016;2023-04-25T13:15:27;5.67;;;5.10;;
705;SDS011;21234;48.690;9.016;2023-04-25T13:17:56;5.37;;;4.37;;
705;SDS011;21234;48.690;9.016;2023-04-25T13:20:22;8.13;;;4.50;;
705;SDS011;21234;48.690;9.016;2023-04-25T13:22:49;6.43;;;5.87;;
705;SDS011;21234;48.690;9.016;2023-04-25T13:25:16;6.83;;;5.33;;
705;SDS011;21234;48.690;9.016;2023-04-25T13:27:43;7.07;;;4.83;;
705;SDS011;21234;48.690;9.016;2023-04-25T13:30:11;5.50;;;4.90;;
705;SDS011;21234;48.690;9.016;2023-04-25T13:32:39;6.07;;;5.50;;
705;SDS011;21234;48.690;9.016;2023-04-25T13:35:08;8.53;;;5.93;;
705;SDS011;21234;48.690;9.016;2023-04-25T13:37:35;9.83;;;6.97;;
705;SDS011;21234;48.690;9.016;2023-04-25T13:40:03;6.67;;;5.97;;
705;SDS011;21234;48.690;9.016;2023-04-25T13:42:32;8.40;;;6.20;;
705;SDS011;21234;48.690;9.016;2023-04-25T13:44:59;6.43;;;5.33;;
705;SDS011;21234;48.690;9.016;2023-04-25T13:47:26;7.50;;;5.67;;
705;SDS011;21234;48.690;9.016;2023-04-25T13:49:53;5.30;;;4.80;;
705;SDS011;21234;48.690;9.016;2023-04-25T13:52:21;6.20;;;5.33;;
705;SDS011;21234;48.690;9.016;2023-04-25T13:54:49;5.67;;;5.17;;
705;SDS011;21234;48.690;9.016;2023-04-25T13:57:17;8.63;;;6.17;;
705;SDS011;21234;48.690;9.016;2023-04-25T13:59:43;6.63;;;5.93;;
705;SDS011;21234;48.690;9.016;2023-04-25T14:02:11;9.40;;;5.40;;
705;SDS011;21234;48.690;9.016;2023-04-25T14:04:38;8.50;;;5.97;;
705;SDS011;21234;48.690;9.016;2023-04-25T14:07:04;7.63;;;5.80;;
705;SDS011;21234;48.690;9.016;2023-04-25T14:09:32;8.93;;;7.47;;
705;SDS011;21234;48.690;9.016;2023-04-25T14:11:59;8.13;;;6.17;;
705;SDS011;21234;48.690;9.016;2023-04-25T14:14:27;9.30;;;6.60;;
705;SDS011;21234;48.690;9.016;2023-04-25T14:16:53;8.90;;;6.80;;
705;SDS011;21234;48.690;9.016;2023-04-25T14:19:22;6.20;;;5.60;;
705;SDS011;21234;48.690;9.016;2023-04-25T14:21:48;7.70;;;5.93;;
705;SDS011;21234;48.690;9.016;2023-04-25T14:24:15;5.10;;;4.50;;
705;SDS011;21234;48.690;9.016;2023-04-25T14:26:44;4.27;;;3.57;;
705;SDS011;21234;48.690;9.016;2023-04-25T14:29:10;6.30;;;5.30;;
705;SDS011;21234;48.690;9.016;2023-04-25T14:31:37;5.13;;;4.30;;
705;SDS011;21234;48.690;9.016;2023-04-25T14:34:05;6.80;;;5.50;;
705;SDS011;21234;48.690;9.016;2023-04-25T14:36:32;5.27;;;4.77;;
705;SDS011;21234;48.690;9.016;2023-04-25T14:38:59;5.93;;;4.47;;
705;SDS011;21234;48.690;9.016;2023-04-25T14:41:26;5.03;;;4.47;;
705;SDS011;21234;48.690;9.016;2023-04-25T14:43:54;5.30;;;4.80;;
705;SDS011;21234;48.690;9.016;2023-04-25T14:46:21;5.07;;;4.20;;
705;SDS011;21234;48.690;9.016;2023-04-25T14:48:48;5.00;;;3.80;;
705;SDS011;21234;48.690;9.016;2023-04-25T14:51:15;3.63;;;3.27;;
705;SDS011;21234;48.690;9.016;2023-04-25T14:53:42;4.10;;;3.60;;
705;SDS011;21234;48.690;9.016;2023-04-25T14:56:09;5.50;;;3.57;;
705;SDS011;21234;48.690;9.016;2023-04-25T14:58:36;3.57;;;3.10;;
705;SDS011;21234;48.690;9.016;2023-04-25T15:01:05;2.53;;;2.33;;
705;SDS011;21234;48.690;9.016;2023-04-25T15:03:33;4.57;;;3.40;;
705;SDS011;21234;48.690;9.016;2023-04-25T15:05:59;4.63;;;3.37;;
705;SDS011;21234;48.690;9.016;2023-04-25T15:08:26;3.30;;;2.43;;
705;SDS011;21234;48.690;9.016;2023-04-25T15:10:53;3.87;;;3.50;;
705;SDS011;21234;48.690;9.016;2023-04-25T15:13:19;4.63;;;2.77;;
705;SDS011;21234;48.690;9.016;2023-04-25T15:15:46;4.23;;;3.13;;
705;SDS011;21234;48.690;9.016;2023-04-25T15:18:17;2.93;;;2.30;;